Time;durP1;ratioP1;P1;durP2;ratioP2;P2;SDS_P1;SDS_P2;PMS_P1;PMS_P2;Temp;Humidity;BMP_temperature;BMP_pressure;BME280_temperature;BME280_humidity;BME280_pressure;Samples;Min_cycle;Max_cycle;Signal;HPM_P1;HPM_P2
2023/06/15 07:18:14;;;;;;;6.90;4.10;;;;;;;20.83;70.42;98957.56;79949;1300;3013429;-63
2023/06/15 07:20:41;;;;;;;9.10;4.50;;;;;;;21.62;67.47;98950.64;78829;1304;3014948;-62
2023/06/15 07:23:08;;;;;;;8.50;5.50;;;;;;;21.91;66.34;98952.65;79082;1305;3011677;-64
2023/06/15 07:25:38;;;;;;;12.80;5.00;;;;;;;22.19;65.80;98948.57;77751;1306;3052271;-63
2023/06/15 07:28:04;;;;;;;12.50;5.40;;;;;;;22.24;64.95;98949.52;78963;1304;3013781;-63
2023/06/15 07:30:31;;;;;;;12.70;5.00;;;;;;;22.20;64.07;98948.08;77175;1306;3011545;-65
2023/06/15 07:32:59;;;;;;;7.40;4.60;;;;;;;22.07;64.38;98944.43;78196;1299;3026214;-63
2023/06/15 07:35:25;;;;;;;11.90;4.70;;;;;;;22.24;64.23;98946.03;79371;1297;3020739;-64
2023/06/15 07:37:52;;;;;;;11.10;5.80;;;;;;;22.23;64.31;98947.50;79332;1301;3013116;-64
2023/06/15 07:40:20;;;;;;;11.50;5.70;;;;;;;22.06;65.18;98943.59;78186;1298;3026575;-64
2023/06/15 07:42:47;;;;;;;12.40;5.80;;;;;;;21.70;66.03;98942.51;79449;1300;3018637;-63
2023/06/15 07:45:13;;;;;;;10.30;5.60;;;;;;;21.75;66.35;98943.68;79261;1299;3013126;-63
2023/06/15 07:47:41;;;;;;;11.50;5.20;;;;;;;21.98;65.70;98942.96;78072;1300;3026223;-64
2023/06/15 07:50:09;;;;;;;8.00;5.00;;;;;;;22.20;64.93;98938.59;79438;1300;3018426;-62
2023/06/15 07:52:35;;;;;;;8.80;5.40;;;;;;;22.46;64.00;98943.02;79312;1297;3013223;-63
2023/06/15 07:55:05;;;;;;;12.40;5.90;;;;;;;22.16;64.80;98944.41;78035;1301;3053854;-63
2023/06/15 07:57:31;;;;;;;10.70;5.70;;;;;;;22.31;64.64;98944.22;79484;1297;3013561;-63
2023/06/15 07:59:58;;;;;;;11.50;5.00;;;;;;;22.38;63.22;98945.58;79267;1300;3011830;-64
2023/06/15 08:02:26;;;;;;;11.30;4.90;;;;;;;22.11;63.74;98946.73;78157;1300;3048914;-62
2023/06/15 08:04:53;;;;;;;10.80;5.80;;;;;;;21.95;64.42;98945.92;79209;1297;3013639;-63
2023/06/15 08:07:20;;;;;;;8.30;5.00;;;;;;;22.16;64.19;98942.77;79247;1297;3013344;-63
2023/06/15 08:09:48;;;;;;;9.10;4.70;;;;;;;22.50;63.44;98941.52;77976;1300;3026858;-63
2023/06/15 08:12:16;;;;;;;8.60;5.00;;;;;;;22.56;62.96;98944.94;79304;1300;3012936;-64
2023/06/15 08:14:44;;;;;;;12.10;5.00;;;;;;;22.21;64.10;98943.17;79183;1297;3011832;-63
2023/06/15 08:17:11;;;;;;;15.60;5.50;;;;;;;22.04;64.67;98942.98;77996;1300;3049761;-63
2023/06/15 08:19:39;;;;;;;10.20;4.40;;;;;;;22.01;65.07;98943.31;79188;1296;3013583;-63
2023/06/15 08:22:06;;;;;;;7.90;4.80;;;;;;;22.10;64.56;98937.16;79487;1297;3013808;-62
2023/06/15 08:24:35;;;;;;;11.40;4.40;;;;;;;22.24;63.50;98934.39;78089;1300;3053129;-63
2023/06/15 08:27:02;;;;;;;7.50;4.70;;;;;;;22.42;63.16;98936.62;79294;1300;3018889;-64
2023/06/15 08:29:29;;;;;;;8.90;4.70;;;;;;;22.36;63.44;98936.05;79303;1300;3011678;-62
2023/06/15 08:31:57;;;;;;;9.10;4.50;;;;;;;22.28;63.43;98935.73;78075;1300;3029291;-63
2023/06/15 08:34:24;;;;;;;15.90;4.80;;;;;;;22.22;63.62;98930.33;79451;1300;3019222;-63
2023/06/15 08:36:51;;;;;;;8.40;4.00;;;;;;;22.45;62.98;98930.20;79621;1300;3011833;-63
2023/06/15 08:39:19;;;;;;;7.90;4.20;;;;;;;22.69;61.99;98929.64;77982;1300;3029735;-64
2023/06/15 08:41:46;;;;;;;10.30;4.10;;;;;;;22.54;62.43;98928.92;79414;1297;3012638;-63
2023/06/15 08:44:13;;;;;;;7.60;4.30;;;;;;;22.80;61.74;98927.77;79275;1297;3011962;-63
2023/06/15 08:46:44;;;;;;;8.80;4.30;;;;;;;22.83;61.53;98927.84;77974;1300;3050620;-64
2023/06/15 08:49:11;;;;;;;7.90;4.10;;;;;;;22.82;61.42;98918.58;79253;1300;3015688;-63
2023/06/15 08:51:39;;;;;;;6.30;4.00;;;;;;;22.99;61.24;98920.14;78083;1303;3026093;-64
2023/06/15 08:54:08;;;;;;;12.10;4.20;;;;;;;23.10;61.06;98916.30;79259;1301;3021337;-64
2023/06/15 08:56:38;;;;;;;9.50;4.20;;;;;;;23.11;61.21;98918.88;79206;1298;3011703;-63
2023/06/15 08:59:06;;;;;;;8.30;4.50;;;;;;;23.31;60.71;98909.46;78080;1297;3050878;-64
2023/06/15 09:01:33;;;;;;;8.30;4.20;;;;;;;23.49;60.38;98908.41;79426;1297;3012802;-63
2023/06/15 09:04:04;;;;;;;6.70;4.10;;;;;;;23.38;60.59;98910.91;79040;1297;3053270;-64
2023/06/15 09:06:31;;;;;;;11.10;4.50;;;;;;;23.33;60.63;98912.12;79278;1300;3014998;-64
2023/06/15 09:08:58;;;;;;;9.90;4.70;;;;;;;23.17;60.63;98911.73;79384;1300;3011779;-64
2023/06/15 09:11:26;;;;;;;6.90;4.10;;;;;;;23.07;61.32;98912.20;78233;1296;3069517;-64
2023/06/15 09:13:54;;;;;;;9.10;3.80;;;;;;;23.50;60.56;98906.95;79322;1297;3013237;-63
2023/06/15 09:16:20;;;;;;;10.30;3.90;;;;;;;23.84;59.15;98909.54;79310;1295;3011861;-63
2023/06/15 09:18:51;;;;;;;9.90;4.00;;;;;;;24.01;58.51;98909.09;77797;1303;3052342;-63
2023/06/15 09:21:21;;;;;;;8.30;4.50;;;;;;;23.76;58.63;98920.07;79306;1310;3013505;-64
2023/06/15 09:23:49;;;;;;;6.50;4.00;;;;;;;23.40;59.95;98912.64;78066;1300;3053227;-64
2023/06/15 09:26:26;;;;;;;10.40;4.10;;;;;;;23.21;60.24;98915.66;79531;1300;3013330;-64
2023/06/15 09:28:55;;;;;;;6.70;4.10;;;;;;;23.26;59.71;98915.55;78183;1300;3051279;-63
2023/06/15 09:31:47;;;;;;;9.30;3.30;;;;;;;23.32;60.18;98917.02;79278;1298;3013098;-63
2023/06/15 09:34:15;;;;;;;12.10;4.10;;;;;;;23.63;59.22;98920.18;78084;1300;3053127;-64
2023/06/15 09:36:44;;;;;;;9.90;3.60;;;;;;;23.76;58.80;98917.20;79452;1297;3012810;-63
2023/06/15 09:39:14;;;;;;;10.90;3.90;;;;;;;23.42;59.40;98927.97;79078;1297;3011635;-64
2023/06/15 09:41:54;;;;;;;9.00;4.30;;;;;;;23.13;60.74;98928.98;79646;1297;3012437;-64
2023/06/15 09:44:22;;;;;;;10.90;4.20;;;;;;;23.33;60.68;98924.41;78068;1295;3049600;-63
2023/06/15 09:46:51;;;;;;;7.60;4.40;;;;;;;23.24;60.47;98927.35;79329;1297;3011950;-63
2023/06/15 09:49:25;;;;;;;8.70;4.40;;;;;;;23.35;60.08;98925.25;79311;1299;3011602;-62
2023/06/15 09:51:56;;;;;;;9.30;4.10;;;;;;;23.46;59.64;98922.33;78027;1300;3049546;-63
2023/06/15 09:54:24;;;;;;;12.10;4.80;;;;;;;23.38;59.48;98926.90;79167;1298;3012948;-63
2023/06/15 09:56:53;;;;;;;12.40;4.60;;;;;;;23.35;59.62;98923.98;78331;1299;3052649;-64
2023/06/15 09:59:20;;;;;;;6.80;4.20;;;;;;;23.55;59.54;98924.43;79253;1296;3013678;-63
2023/06/15 10:01:48;;;;;;;8.40;3.80;;;;;;;24.00;58.66;98924.17;79359;1296;3011551;-62
2023/06/15 10:04:19;;;;;;;9.30;4.40;;;;;;;24.44;57.48;98924.18;77972;1300;3049326;-63
2023/06/15 10:06:50;;;;;;;8.40;3.90;;;;;;;24.83;56.21;98916.80;79350;1296;3013683;-64
2023/06/15 10:09:23;;;;;;;10.90;4.90;;;;;;;25.03;55.42;98916.55;78088;1300;3048714;-63
2023/06/15 10:11:50;;;;;;;11.20;4.20;;;;;;;24.85;54.97;98919.50;79236;1298;3013984;-64
2023/06/15 10:14:24;;;;;;;13.90;4.70;;;;;;;24.63;55.74;98915.15;78110;1299;3054321;-62
2023/06/15 10:16:53;;;;;;;10.20;4.10;;;;;;;24.89;55.80;98913.44;79231;1298;3013134;-63
2023/06/15 10:19:22;;;;;;;9.10;4.10;;;;;;;25.32;55.01;98906.99;77980;1297;3050239;-64
2023/06/15 10:21:48;;;;;;;10.30;3.80;;;;;;;25.48;54.02;98908.16;79286;1296;3013923;-65
2023/06/15 10:24:16;;;;;;;7.20;4.20;;;;;;;25.48;53.92;98903.98;79166;1296;3011587;-63
2023/06/15 10:26:44;;;;;;;6.10;3.50;;;;;;;25.42;54.48;98906.13;78093;1300;3051738;-64
2023/06/15 10:29:36;;;;;;;11.70;4.20;;;;;;;25.49;54.61;98906.38;79319;1297;3013425;-64
2023/06/15 10:32:12;;;;;;;6.50;4.00;;;;;;;25.64;53.91;98905.59;77961;1302;3069235;-64
2023/06/15 10:35:10;;;;;;;6.10;3.60;;;;;;;25.51;54.00;98911.52;78111;1296;3049538;-64
2023/06/15 10:37:48;;;;;;;7.00;3.40;;;;;;;25.60;53.90;98908.73;78149;1297;3057078;-64
2023/06/15 10:40:23;;;;;;;7.50;4.10;;;;;;;25.72;53.63;98911.06;78035;1297;3050113;-65
2023/06/15 10:42:52;;;;;;;8.70;4.20;;;;;;;25.83;52.69;98910.78;78749;1297;3013661;-64
2023/06/15 10:45:34;;;;;;;9.20;4.20;;;;;;;25.60;53.06;98914.31;79222;1297;3014135;-64
2023/06/15 10:48:03;;;;;;;5.40;3.50;;;;;;;25.68;53.31;98907.16;77973;1300;3051852;-67
2023/06/15 10:50:41;;;;;;;8.50;3.90;;;;;;;25.83;53.23;98906.27;79257;1300;3013100;-64
2023/06/15 10:53:25;;;;;;;11.20;4.40;;;;;;;25.83;53.43;98904.27;78120;1300;3052751;-64
2023/06/15 10:55:57;;;;;;;10.00;3.90;;;;;;;25.89;52.51;98907.52;78275;1300;3057372;-64
2023/06/15 10:58:26;;;;;;;7.70;3.80;;;;;;;25.87;51.98;98908.02;79419;1297;3011665;-64
2023/06/15 11:01:08;;;;;;;7.50;4.00;;;;;;;26.09;51.64;98905.97;78021;1297;3052998;-64
2023/06/15 11:03:39;;;;;;;8.50;4.00;;;;;;;26.28;51.17;98895.39;78084;1300;3050863;-65
2023/06/15 11:06:09;;;;;;;9.90;3.90;;;;;;;26.27;51.46;98899.59;79269;1299;3011592;-64
2023/06/15 11:09:11;;;;;;;8.10;4.10;;;;;;;26.13;51.81;98899.34;78061;1300;3051809;-63
2023/06/15 11:11:42;;;;;;;;;;;;;;;25.84;52.58;98899.85;77964;1300;3068984;-63
2023/06/15 11:14:18;;;;;;;8.40;4.10;;;;;;;25.91;53.30;98899.48;79208;1297;3012949;-63
2023/06/15 11:17:00;;;;;;;8.80;3.90;;;;;;;26.00;53.18;98898.29;78026;1300;3056337;-64
2023/06/15 11:19:28;;;;;;;9.80;3.70;;;;;;;26.30;52.01;98896.52;78022;1303;3050085;-66
2023/06/15 11:21:57;;;;;;;9.50;4.10;;;;;;;26.26;52.12;98896.59;79330;1297;3020650;-64
2023/06/15 11:24:29;;;;;;;11.30;3.70;;;;;;;25.82;52.82;98898.36;79243;1298;3011851;-65
2023/06/15 11:27:01;;;;;;;5.80;3.80;;;;;;;26.02;52.93;98893.16;78059;1299;3051790;-64
2023/06/15 11:29:27;;;;;;;11.10;4.10;;;;;;;26.38;51.94;98902.26;79139;1295;3013471;-65
2023/06/15 11:31:55;;;;;;;9.60;3.80;;;;;;;26.49;51.65;98900.67;77973;1300;3028326;-64
2023/06/15 11:34:22;;;;;;;6.60;3.80;;;;;;;26.69;50.40;98899.30;79275;1300;3012995;-65
2023/06/15 11:36:48;;;;;;;7.60;3.00;;;;;;;26.82;49.32;98900.81;79203;1300;3011951;-64
2023/06/15 11:39:20;;;;;;;5.20;3.40;;;;;;;26.59;49.50;98899.52;78045;1300;3027160;-65
2023/06/15 11:41:50;;;;;;;7.10;3.50;;;;;;;26.40;49.93;98902.59;79279;1297;3011685;-64
2023/06/15 11:44:19;;;;;;;7.10;3.50;;;;;;;26.44;50.26;98897.35;78079;1299;3051894;-65
2023/06/15 11:46:55;;;;;;;6.20;3.70;;;;;;;26.72;49.18;98898.55;79234;1297;3013548;-63
2023/06/15 11:49:23;;;;;;;8.80;3.40;;;;;;;26.87;49.05;98899.05;78018;1300;3057862;-64
2023/06/15 11:51:52;;;;;;;12.60;3.60;;;;;;;27.17;48.62;98893.44;79293;1300;3012907;-63
2023/06/15 11:54:23;;;;;;;7.60;4.00;;;;;;;27.41;48.23;98892.29;79296;1298;3011596;-65
2023/06/15 11:56:52;;;;;;;4.90;3.20;;;;;;;27.36;48.40;98893.34;78100;1300;3053262;-65
2023/06/15 11:59:20;;;;;;;4.90;3.10;;;;;;;27.00;49.66;98887.09;79238;1300;3013970;-63
2023/06/15 12:01:47;;;;;;;12.80;3.50;;;;;;;27.28;49.29;98882.27;79645;1297;3012058;-63
2023/06/15 12:04:15;;;;;;;9.10;3.70;;;;;;;27.56;48.68;98881.45;78074;1300;3056375;-65
2023/06/15 12:06:42;;;;;;;7.10;3.20;;;;;;;27.23;49.03;98883.84;79277;1300;3013215;-66
2023/06/15 12:09:09;;;;;;;7.70;3.30;;;;;;;27.45;48.44;98876.91;79252;1297;3011893;-66
2023/06/15 12:11:37;;;;;;;9.40;3.50;;;;;;;27.93;47.48;98882.55;78345;1297;3053589;-63
2023/06/15 12:14:08;;;;;;;8.30;3.10;;;;;;;28.25;46.09;98884.20;79520;1297;3012857;-65
2023/06/15 12:16:37;;;;;;;5.60;3.10;;;;;;;27.97;46.84;98885.48;78019;1297;3051558;-64
2023/06/15 12:19:04;;;;;;;7.70;3.30;;;;;;;27.94;47.08;98879.81;79705;1297;3013578;-64
2023/06/15 12:21:32;;;;;;;10.30;3.60;;;;;;;27.98;47.49;98877.90;79474;1298;3011923;-65
2023/06/15 12:24:00;;;;;;;6.00;3.10;;;;;;;28.13;47.16;98878.16;78138;1297;3052130;-65
2023/06/15 12:26:34;;;;;;;5.40;3.00;;;;;;;28.11;46.94;98883.61;79508;1300;3012986;-64
2023/06/15 12:29:15;;;;;;;6.90;3.70;;;;;;;27.70;47.52;98879.33;78036;1297;3068015;-63
2023/06/15 12:31:51;;;;;;;9.10;3.20;;;;;;;27.88;47.49;98876.27;78005;1300;3051391;-64
2023/06/15 12:34:24;;;;;;;8.00;3.20;;;;;;;28.07;47.13;98874.86;77986;1299;3056057;-65
2023/06/15 12:36:51;;;;;;;10.60;3.70;;;;;;;28.18;47.00;98870.94;79258;1297;3013010;-64
2023/06/15 12:39:19;;;;;;;13.20;3.50;;;;;;;28.32;46.69;98873.41;78245;1299;3053430;-65
2023/06/15 12:41:46;;;;;;;11.20;3.50;;;;;;;27.98;47.24;98879.55;79320;1301;3013279;-64
2023/06/15 12:44:13;;;;;;;11.50;3.40;;;;;;;27.86;47.72;98869.35;79316;1300;3012926;-64
2023/06/15 12:46:41;;;;;;;6.70;3.90;;;;;;;27.71;47.96;98872.21;78181;1297;3027964;-64
2023/06/15 12:49:09;;;;;;;6.10;3.30;;;;;;;27.27;48.99;98877.21;79361;1297;3018465;-65
2023/06/15 12:51:37;;;;;;;9.30;3.70;;;;;;;27.05;49.68;98870.65;79287;1297;3011583;-63
2023/06/15 12:54:05;;;;;;;7.70;3.30;;;;;;;27.27;49.25;98865.61;78179;1297;3053738;-63
2023/06/15 12:56:35;;;;;;;7.90;3.10;;;;;;;27.64;48.69;98867.14;79490;1299;3012873;-66
2023/06/15 12:59:04;;;;;;;6.60;3.10;;;;;;;27.86;47.96;98859.23;78829;1297;3011806;-64
2023/06/15 13:01:31;;;;;;;8.40;3.40;;;;;;;27.95;47.78;98855.25;79326;1297;3013281;-63
2023/06/15 13:04:02;;;;;;;9.90;3.60;;;;;;;28.03;47.77;98851.03;78777;1297;3013219;-65
2023/06/15 13:06:29;;;;;;;10.10;3.30;;;;;;;28.32;47.53;98858.90;79253;1295;3013028;-65
2023/06/15 13:08:55;;;;;;;5.50;3.00;;;;;;;28.10;48.02;98856.42;79239;1296;3011942;-64
2023/06/15 13:11:24;;;;;;;8.80;2.90;;;;;;;28.09;47.77;98857.21;78102;1297;3028738;-65
2023/06/15 13:13:51;;;;;;;6.80;2.90;;;;;;;28.03;47.60;98852.37;79383;1297;3011428;-65
2023/06/15 13:16:18;;;;;;;8.30;2.80;;;;;;;27.93;47.69;98851.03;79389;1300;3011929;-65
2023/06/15 13:18:46;;;;;;;10.70;2.90;;;;;;;27.98;47.51;98848.63;78131;1300;3068792;-63
2023/06/15 13:21:13;;;;;;;6.10;3.00;;;;;;;27.93;47.53;98842.88;79644;1297;3013984;-64
2023/06/15 13:23:40;;;;;;;8.00;3.50;;;;;;;27.85;47.59;98849.48;79276;1296;3011784;-65
2023/06/15 13:26:08;;;;;;;6.80;2.90;;;;;;;27.84;47.73;98845.84;78076;1300;3028526;-64
2023/06/15 13:28:35;;;;;;;7.80;3.10;;;;;;;27.93;47.63;98843.89;79313;1301;3019645;-64
2023/06/15 13:31:01;;;;;;;10.50;3.50;;;;;;;27.85;47.35;98843.20;79311;1296;3013091;-64
2023/06/15 13:33:30;;;;;;;7.20;3.20;;;;;;;27.59;47.54;98841.25;78155;1300;3069839;-64
2023/06/15 13:35:57;;;;;;;7.60;3.10;;;;;;;27.38;48.32;98839.03;79378;1296;3012779;-65
2023/06/15 13:38:25;;;;;;;5.40;3.20;;;;;;;27.26;48.63;98840.76;79406;1296;3011730;-64
2023/06/15 13:40:53;;;;;;;12.70;3.10;;;;;;;27.18;48.82;98834.61;78121;1297;3052648;-66
2023/06/15 13:43:20;;;;;;;10.90;2.90;;;;;;;27.03;49.10;98835.82;79412;1300;3013444;-64
2023/06/15 13:45:47;;;;;;;11.90;3.20;;;;;;;26.78;49.79;98839.93;79422;1300;3011751;-64
2023/06/15 13:48:15;;;;;;;13.20;3.50;;;;;;;26.95;49.75;98833.80;78176;1300;3028315;-64
2023/06/15 13:50:42;;;;;;;5.90;2.90;;;;;;;26.89;49.57;98835.29;79358;1297;3013566;-64
2023/06/15 13:53:09;;;;;;;8.20;3.20;;;;;;;26.73;49.78;98838.23;79356;1296;3013075;-64
2023/06/15 13:55:37;;;;;;;10.70;2.70;;;;;;;26.47;50.40;98839.59;78127;1297;3052995;-64
2023/06/15 13:58:04;;;;;;;9.60;3.40;;;;;;;26.63;50.42;98832.59;79282;1300;3019661;-63
2023/06/15 14:00:31;;;;;;;7.30;2.90;;;;;;;26.65;50.16;98834.33;79291;1297;3013474;-63
2023/06/15 14:03:04;;;;;;;8.00;2.90;;;;;;;26.44;50.62;98829.12;78139;1300;3068885;-64
2023/06/15 14:05:32;;;;;;;9.90;4.30;;;;;;;26.32;50.72;98826.26;79452;1297;3011859;-63
2023/06/15 14:08:00;;;;;;;14.10;3.00;;;;;;;26.36;50.92;98824.14;78201;1297;3056216;-63
2023/06/15 14:10:27;;;;;;;13.20;4.50;;;;;;;26.31;51.55;98824.02;79436;1296;3020632;-67
2023/06/15 14:12:54;;;;;;;12.30;5.50;;;;;;;26.25;52.13;98831.29;79414;1298;3011898;-64
2023/06/15 14:15:22;;;;;;;7.70;5.80;;;;;;;26.39;51.81;98825.41;78233;1300;3053810;-64
2023/06/15 14:17:49;;;;;;;12.50;5.90;;;;;;;26.36;52.27;98821.90;79531;1299;3020674;-63
2023/06/15 14:20:16;;;;;;;10.30;5.70;;;;;;;26.45;51.86;98817.90;79366;1300;3011662;-63
2023/06/15 14:22:45;;;;;;;9.90;5.90;;;;;;;26.31;51.90;98812.34;78203;1297;3057109;-64
2023/06/15 14:25:12;;;;;;;12.90;7.70;;;;;;;26.21;52.12;98810.59;79503;1297;3018565;-63
2023/06/15 14:27:39;;;;;;;15.60;7.70;;;;;;;26.16;52.73;98808.69;79407;1298;3011762;-64
2023/06/15 14:30:07;;;;;;;16.70;6.90;;;;;;;26.40;52.24;98807.59;78118;1300;3024940;-63
2023/06/15 14:32:36;;;;;;;14.20;6.10;;;;;;;26.56;52.14;98809.33;79304;1299;3013677;-63
2023/06/15 14:35:06;;;;;;;17.70;6.90;;;;;;;26.75;51.81;98810.13;78842;1300;3011711;-63
2023/06/15 14:37:32;;;;;;;10.80;5.90;;;;;;;26.66;52.04;98807.22;79274;1296;3014731;-64
2023/06/15 14:40:01;;;;;;;11.80;5.50;;;;;;;26.61;51.88;98801.39;79189;1298;3012924;-63
2023/06/15 14:42:29;;;;;;;15.30;6.90;;;;;;;26.64;51.85;98806.02;78003;1297;3054564;-64
2023/06/15 14:44:56;;;;;;;9.70;5.20;;;;;;;26.66;51.62;98803.32;79283;1300;3014702;-63
2023/06/15 14:47:23;;;;;;;13.60;4.60;;;;;;;26.58;51.43;98797.38;79489;1300;3011662;-66
2023/06/15 14:49:51;;;;;;;11.90;4.60;;;;;;;26.60;51.27;98795.05;78533;1300;3068811;-64
2023/06/15 14:52:18;;;;;;;9.80;5.50;;;;;;;26.58;51.52;98793.77;79376;1296;3018789;-64
2023/06/15 14:54:45;;;;;;;10.30;4.80;;;;;;;26.63;51.44;98792.38;79584;1300;3013650;-64
2023/06/15 14:57:13;;;;;;;11.70;4.50;;;;;;;26.67;51.28;98784.58;78297;1296;3053677;-64
2023/06/15 14:59:40;;;;;;;8.70;4.50;;;;;;;26.55;51.56;98783.67;79451;1298;3012975;-63
2023/06/15 15:02:08;;;;;;;10.50;4.60;;;;;;;26.49;51.79;98789.09;79353;1299;3011543;-64
2023/06/15 15:04:36;;;;;;;11.10;3.50;;;;;;;26.52;52.02;98794.95;78115;1300;3069603;-65
2023/06/15 15:07:03;;;;;;;6.10;3.20;;;;;;;26.40;52.22;98793.89;79479;1297;3013228;-67
2023/06/15 15:09:30;;;;;;;9.00;3.20;;;;;;;26.44;51.93;98796.61;79371;1297;3011638;-64
2023/06/15 15:11:58;;;;;;;8.00;3.50;;;;;;;26.36;51.86;98794.98;78197;1297;3054103;-64
2023/06/15 15:14:25;;;;;;;8.70;3.30;;;;;;;26.44;51.86;98794.56;79545;1300;3013692;-63
2023/06/15 15:16:52;;;;;;;12.80;3.70;;;;;;;26.37;51.97;98802.80;79390;1297;3013668;-64
2023/06/15 15:19:20;;;;;;;13.90;3.80;;;;;;;25.92;53.33;98795.91;78240;1297;3070467;-64
2023/06/15 15:21:47;;;;;;;14.90;3.50;;;;;;;25.67;54.32;98817.49;79500;1296;3012897;-64
2023/06/15 15:24:13;;;;;;;12.10;3.20;;;;;;;25.44;54.84;98813.51;79361;1296;3012829;-64
2023/06/15 15:26:42;;;;;;;18.30;2.90;;;;;;;25.11;55.67;98816.63;78249;1296;3026044;-65
2023/06/15 15:29:09;;;;;;;8.00;3.00;;;;;;;24.82;56.86;98843.46;79508;1297;3013263;-64
2023/06/15 15:31:35;;;;;;;14.90;3.40;;;;;;;24.46;58.94;98847.25;79539;1297;3013649;-67
2023/06/15 15:34:04;;;;;;;9.20;3.20;;;;;;;24.39;61.30;98862.83;78191;1299;3067637;-65
2023/06/15 15:36:30;;;;;;;13.70;3.60;;;;;;;24.43;64.37;98873.00;79572;1300;3013410;-66
2023/06/15 15:38:57;;;;;;;10.50;3.80;;;;;;;24.19;68.70;98884.76;79435;1295;3011840;-69
2023/06/15 15:41:25;;;;;;;12.90;3.90;;;;;;;23.79;71.36;98881.77;78300;1297;3026428;-68
2023/06/15 15:43:53;;;;;;;12.00;3.80;;;;;;;23.49;72.68;98877.27;79424;1301;3013297;-65
2023/06/15 15:46:20;;;;;;;10.90;3.50;;;;;;;23.20;73.99;98883.36;79468;1300;3013795;-69
2023/06/15 15:48:49;;;;;;;12.90;3.60;;;;;;;23.04;75.59;98892.34;78382;1297;3070640;-65
2023/06/15 15:51:15;;;;;;;4.40;2.10;;;;;;;22.95;75.67;98899.77;79412;1296;3018580;-69
2023/06/15 15:53:42;;;;;;;5.50;2.20;;;;;;;23.32;74.44;98898.98;80197;1296;3011650;-72
2023/06/15 15:56:10;;;;;;;8.00;2.30;;;;;;;23.68;72.34;98894.95;78301;1294;3028214;-73
2023/06/15 15:58:37;;;;;;;4.60;2.40;;;;;;;23.75;72.04;98898.38;79510;1297;3013627;-72
2023/06/15 16:01:17;;;;;;;9.50;2.70;;;;;;;23.58;72.82;98896.92;78228;1300;3052975;-67
2023/06/15 16:03:44;;;;;;;9.10;3.20;;;;;;;23.32;73.28;98899.54;79644;1297;3013684;-69
2023/06/15 16:06:11;;;;;;;8.20;2.80;;;;;;;23.15;73.31;98898.52;79632;1295;3011912;-69
2023/06/15 16:08:38;;;;;;;5.80;2.50;;;;;;;22.94;72.61;98892.42;78316;1297;3026993;-65
2023/06/15 16:11:05;;;;;;;7.10;2.30;;;;;;;22.77;73.40;98890.78;79457;1296;3015600;-68
2023/06/15 16:13:32;;;;;;;7.70;2.70;;;;;;;22.65;74.67;98894.61;79432;1297;3013470;-69
2023/06/15 16:16:03;;;;;;;6.00;2.80;;;;;;;22.47;74.78;98892.30;78221;1300;3053947;-66
2023/06/15 16:18:30;;;;;;;3.10;2.20;;;;;;;22.40;74.17;98892.79;79484;1300;3012910;-66
2023/06/15 16:20:57;;;;;;;6.10;1.70;;;;;;;22.37;74.37;98894.34;79623;1294;3011891;-65
2023/06/15 16:23:25;;;;;;;3.20;1.60;;;;;;;22.91;72.73;98892.54;78366;1298;3050554;-65
2023/06/15 16:25:51;;;;;;;4.10;1.70;;;;;;;23.46;69.00;98884.30;79450;1298;3013035;-67
2023/06/15 16:28:18;;;;;;;3.80;2.30;;;;;;;23.25;68.96;98881.27;79557;1297;3013131;-64
2023/06/15 16:30:46;;;;;;;7.00;2.70;;;;;;;22.96;71.06;98884.05;78423;1297;3025977;-65
2023/06/15 16:33:12;;;;;;;6.00;2.50;;;;;;;22.83;71.24;98882.25;79526;1297;3013176;-66
2023/06/15 16:35:39;;;;;;;7.60;3.00;;;;;;;22.70;71.76;98885.88;79343;1298;3011663;-66
2023/06/15 16:38:07;;;;;;;6.20;2.60;;;;;;;22.66;71.82;98881.07;78108;1300;3028239;-67
2023/06/15 16:40:33;;;;;;;6.80;3.00;;;;;;;22.49;71.68;98884.59;79529;1298;3013696;-68
2023/06/15 16:43:00;;;;;;;6.10;2.90;;;;;;;22.41;71.22;98887.77;79434;1300;3011616;-65
2023/06/15 16:45:28;;;;;;;9.70;3.20;;;;;;;22.31;71.02;98878.83;78170;1300;3026143;-67
2023/06/15 16:47:55;;;;;;;6.70;2.90;;;;;;;22.25;71.41;98883.73;79304;1300;3013399;-66
2023/06/15 16:50:22;;;;;;;10.90;3.70;;;;;;;22.23;71.10;98885.61;79264;1300;3011486;-67
2023/06/15 16:52:51;;;;;;;7.20;2.50;;;;;;;22.24;70.54;98891.61;78152;1300;3026191;-69
2023/06/15 16:55:18;;;;;;;3.50;2.40;;;;;;;22.85;69.04;98889.48;79330;1300;3013580;-69
2023/06/15 16:57:45;;;;;;;4.90;2.60;;;;;;;23.41;66.68;98889.80;79293;1298;3013572;-66
2023/06/15 17:00:15;;;;;;;6.70;3.20;;;;;;;23.54;64.76;98891.61;78185;1300;3052996;-65
2023/06/15 17:02:41;;;;;;;10.10;4.30;;;;;;;23.35;64.52;98895.94;79324;1297;3013349;-67
2023/06/15 17:05:08;;;;;;;10.50;4.20;;;;;;;23.16;65.81;98898.12;79318;1300;3011622;-65
2023/06/15 17:07:37;;;;;;;13.40;6.00;;;;;;;23.05;66.55;98897.27;78097;1300;3050953;-66
2023/06/15 17:10:04;;;;;;;11.00;4.40;;;;;;;22.82;67.22;98897.92;79284;1298;3013273;-66
2023/06/15 17:12:31;;;;;;;12.50;5.20;;;;;;;22.62;68.41;98896.44;79245;1298;3011632;-63
2023/06/15 17:14:59;;;;;;;10.50;5.20;;;;;;;22.48;68.99;98899.98;78167;1300;3052423;-66
2023/06/15 17:17:26;;;;;;;10.80;4.50;;;;;;;22.35;69.77;98898.10;79313;1300;3012962;-66
2023/06/15 17:19:52;;;;;;;6.60;4.00;;;;;;;22.29;70.15;98892.05;79346;1300;3012842;-71
2023/06/15 17:22:21;;;;;;;9.20;3.90;;;;;;;22.25;70.30;98895.61;78217;1296;3026401;-68
2023/06/15 17:24:48;;;;;;;7.30;3.50;;;;;;;22.27;70.86;98894.49;79486;1297;3011676;-67
2023/06/15 17:27:14;;;;;;;8.20;3.70;;;;;;;22.80;70.03;98896.38;79503;1297;3013620;-67
2023/06/15 17:29:44;;;;;;;6.00;3.70;;;;;;;23.22;68.68;98891.63;78078;1300;3051405;-66
2023/06/15 17:32:11;;;;;;;8.30;4.50;;;;;;;23.23;68.36;98897.59;79329;1298;3013254;-64
2023/06/15 17:34:37;;;;;;;10.10;5.30;;;;;;;23.11;68.90;98893.91;79504;1297;3013079;-65
2023/06/15 17:37:05;;;;;;;14.50;5.70;;;;;;;22.77;70.70;98898.52;78174;1300;3048952;-71
2023/06/15 17:39:32;;;;;;;9.90;5.10;;;;;;;22.52;71.60;98900.04;79451;1300;3012927;-69
2023/06/15 17:41:59;;;;;;;12.60;5.00;;;;;;;22.27;71.91;98905.53;79337;1297;3012991;-68
2023/06/15 17:44:27;;;;;;;11.00;5.90;;;;;;;22.17;72.17;98906.89;78120;1308;3026725;-66
2023/06/15 17:46:54;;;;;;;12.60;5.60;;;;;;;22.08;72.84;98905.60;79304;1299;3012983;-64
2023/06/15 17:49:20;;;;;;;8.00;4.20;;;;;;;22.04;72.87;98909.41;79195;1298;3011616;-67
2023/06/15 17:51:48;;;;;;;12.90;4.00;;;;;;;22.54;70.78;98909.21;78044;1297;3026881;-67
2023/06/15 17:54:15;;;;;;;13.00;4.80;;;;;;;22.94;68.71;98909.00;79371;1298;3021246;-67
2023/06/15 17:56:42;;;;;;;11.70;4.60;;;;;;;22.93;69.15;98915.83;79334;1299;3011629;-68
2023/06/15 17:59:10;;;;;;;11.10;4.70;;;;;;;22.74;69.81;98919.05;78063;1300;3028721;-67
2023/06/15 18:01:36;;;;;;;10.60;4.30;;;;;;;22.60;70.81;98926.96;79348;1295;3013609;-69
2023/06/15 18:04:03;;;;;;;12.10;4.90;;;;;;;22.46;71.39;98925.36;79300;1300;3012953;-64
2023/06/15 18:06:32;;;;;;;13.60;4.70;;;;;;;22.34;71.00;98924.80;78061;1300;3048012;-69
2023/06/15 18:08:59;;;;;;;9.30;4.40;;;;;;;22.31;71.24;98927.30;79196;1300;3013100;-66
2023/06/15 18:11:27;;;;;;;9.60;4.80;;;;;;;22.26;71.09;98932.73;79198;1300;3011643;-67
2023/06/15 18:13:56;;;;;;;11.40;4.60;;;;;;;22.15;71.29;98937.81;78062;1300;3052864;-66
2023/06/15 18:16:23;;;;;;;10.40;4.60;;;;;;;22.00;71.32;98936.84;79285;1300;3013637;-66
2023/06/15 18:18:50;;;;;;;9.50;3.40;;;;;;;21.98;70.62;98941.12;79282;1300;3011870;-66
2023/06/15 18:21:18;;;;;;;7.70;3.00;;;;;;;22.51;68.54;98944.81;77994;1300;3027830;-65
2023/06/15 18:23:45;;;;;;;9.50;3.10;;;;;;;22.96;66.81;98945.54;79378;1296;3014134;-68
2023/06/15 18:26:12;;;;;;;10.70;4.10;;;;;;;23.07;65.96;98950.54;79323;1297;3011660;-65
2023/06/15 18:28:40;;;;;;;9.20;3.60;;;;;;;22.95;65.40;98953.14;78208;1299;3053676;-69
2023/06/15 18:31:06;;;;;;;10.90;3.50;;;;;;;22.77;64.28;98963.52;79428;1300;3013780;-65
2023/06/15 18:33:33;;;;;;;8.00;3.90;;;;;;;22.55;63.86;98963.75;79377;1299;3011494;-66
2023/06/15 18:36:00;;;;;;;7.40;4.20;;;;;;;22.38;63.95;98965.25;77986;1300;3028516;-67
2023/06/15 18:38:28;;;;;;;8.50;4.60;;;;;;;22.23;64.41;98965.15;79364;1297;3012936;-65